Time;durP1;ratioP1;P1;durP2;ratioP2;P2;SDS_P1;SDS_P2;PMS_P1;PMS_P2;Temp;Humidity;BMP_temperature;BMP_pressure;BME280_temperature;BME280_humidity;BME280_pressure;Samples;Min_cycle;Max_cycle;Signal;HPM_P1;HPM_P2
2023/12/04 00:00:47;;;;;;;29.15;17.00;;;0.40;99.90;;;;;;5091628;28;20296;-73
2023/12/04 00:03:12;;;;;;;29.02;16.73;;;0.40;99.90;;;;;;5091465;28;20084;-73
2023/12/04 00:05:38;;;;;;;27.38;15.82;;;0.40;99.90;;;;;;5081419;28;20058;-74
2023/12/04 00:08:04;;;;;;;26.40;14.30;;;0.40;99.90;;;;;;5110813;28;20054;-73
2023/12/04 00:10:30;;;;;;;30.00;16.88;;;0.40;99.90;;;;;;5091859;28;20487;-73
2023/12/04 00:12:55;;;;;;;31.02;18.10;;;0.40;99.90;;;;;;5090501;28;20122;-74
2023/12/04 00:15:21;;;;;;;28.27;16.50;;;0.40;99.90;;;;;;5093550;28;20035;-73
2023/12/04 00:17:47;;;;;;;26.88;16.52;;;0.40;99.90;;;;;;5093061;28;20036;-73
2023/12/04 00:20:12;;;;;;;28.00;16.45;;;0.40;99.90;;;;;;5110625;28;20073;-73
2023/12/04 00:22:38;;;;;;;29.58;16.75;;;0.40;99.90;;;;;;5075147;28;20039;-73
2023/12/04 00:25:05;;;;;;;27.55;15.77;;;0.40;99.90;;;;;;5081101;28;20414;-73
2023/12/04 00:27:31;;;;;;;29.50;16.55;;;0.40;99.90;;;;;;5083995;28;20048;-73
2023/12/04 00:29:57;;;;;;;28.52;16.95;;;0.40;99.90;;;;;;5082602;28;20047;-73
2023/12/04 00:32:23;;;;;;;29.40;16.75;;;0.40;99.90;;;;;;5100473;28;20031;-73
2023/12/04 00:34:49;;;;;;;30.33;16.45;;;0.40;99.90;;;;;;5085100;28;20035;-73
2023/12/04 00:37:14;;;;;;;31.38;17.90;;;0.40;99.90;;;;;;5099515;28;20042;-73
2023/12/04 00:39:40;;;;;;;22.65;13.07;;;0.40;99.90;;;;;;5081763;28;20081;-73
2023/12/04 00:42:06;;;;;;;26.77;16.05;;;0.40;99.90;;;;;;5083206;28;20036;-73
2023/12/04 00:44:31;;;;;;;31.27;17.92;;;0.40;99.90;;;;;;5075311;28;20897;-73
2023/12/04 00:46:57;;;;;;;28.95;17.48;;;0.30;99.90;;;;;;5083745;28;20050;-73
2023/12/04 00:49:23;;;;;;;29.75;17.20;;;0.40;99.90;;;;;;5109533;28;20043;-73
2023/12/04 00:51:49;;;;;;;30.48;18.17;;;0.40;99.90;;;;;;5110303;28;20075;-74
2023/12/04 00:54:15;;;;;;;29.05;17.65;;;0.40;99.90;;;;;;5101066;28;20079;-74
2023/12/04 00:56:41;;;;;;;27.45;15.93;;;0.40;99.90;;;;;;5101329;28;20088;-74
2023/12/04 00:59:10;;;;;;;29.50;17.67;;;0.30;99.90;;;;;;5096039;28;20039;-74
2023/12/04 01:01:36;;;;;;;29.52;17.05;;;0.40;99.90;;;;;;5078077;28;20546;-75
2023/12/04 01:04:02;;;;;;;28.33;17.48;;;0.30;99.90;;;;;;5105981;28;20044;-75
2023/12/04 01:06:29;;;;;;;31.27;18.80;;;0.40;99.90;;;;;;5101075;28;20055;-77
2023/12/04 01:08:55;;;;;;;28.52;16.92;;;0.40;99.90;;;;;;5093443;28;20044;-77
2023/12/04 01:11:22;;;;;;;27.80;16.45;;;0.30;99.90;;;;;;5092953;28;20359;-77
2023/12/04 01:13:48;;;;;;;29.15;17.05;;;0.30;99.90;;;;;;5096510;28;20040;-78
2023/12/04 01:16:14;;;;;;;;;;;0.30;99.90;;;;;;5084595;28;20031;-77
2023/12/04 01:18:41;;;;;;;30.33;16.70;;;0.40;99.90;;;;;;5080748;28;19969;-77
2023/12/04 01:21:08;;;;;;;27.98;17.00;;;0.40;99.90;;;;;;5100442;28;20035;-77
2023/12/04 01:23:35;;;;;;;27.70;16.40;;;0.30;99.90;;;;;;5102372;28;20031;-77
2023/12/04 01:26:01;;;;;;;27.75;17.05;;;0.30;99.90;;;;;;5098274;28;20044;-77
2023/12/04 01:28:27;;;;;;;29.27;16.95;;;0.40;99.90;;;;;;5103325;28;20055;-78
2023/12/04 01:30:52;;;;;;;31.73;18.40;;;0.30;99.90;;;;;;5100799;28;20051;-75
2023/12/04 01:33:18;;;;;;;30.13;17.35;;;0.30;99.90;;;;;;5081562;28;20172;-75
2023/12/04 01:35:44;;;;;;;29.77;17.55;;;0.40;99.90;;;;;;5073705;28;20063;-75
2023/12/04 01:38:09;;;;;;;26.47;16.13;;;0.40;99.90;;;;;;5109763;28;20078;-75
2023/12/04 01:40:35;;;;;;;27.63;16.17;;;0.30;99.90;;;;;;5090395;28;20310;-75
2023/12/04 01:43:01;;;;;;;27.40;16.00;;;0.40;99.90;;;;;;5104783;28;20158;-77
2023/12/04 01:45:27;;;;;;;27.23;16.38;;;0.30;99.90;;;;;;5108366;28;20519;-78
2023/12/04 01:47:53;;;;;;;21.00;12.65;;;0.40;99.90;;;;;;5112741;28;20079;-78
2023/12/04 01:50:19;;;;;;;28.52;16.63;;;0.40;99.90;;;;;;5110458;27;20501;-78
2023/12/04 01:52:47;;;;;;;28.20;16.73;;;0.30;99.90;;;;;;5094886;28;20047;-78
2023/12/04 01:55:14;;;;;;;26.98;15.82;;;0.40;99.90;;;;;;5099480;28;20124;-78
2023/12/04 01:57:41;;;;;;;28.65;16.75;;;0.40;99.90;;;;;;5111387;28;20047;-78
2023/12/04 02:00:11;;;;;;;25.42;15.52;;;0.40;99.90;;;;;;5100988;28;20052;-78
2023/12/04 02:02:44;;;;;;;24.50;15.35;;;0.40;99.90;;;;;;5096025;27;20035;-79
2023/12/04 02:05:12;;;;;;;24.10;14.98;;;0.40;99.90;;;;;;5093563;28;20044;-78
2023/12/04 02:07:40;;;;;;;26.25;15.80;;;0.40;99.90;;;;;;5120981;27;20077;-75
2023/12/04 02:10:06;;;;;;;28.05;16.33;;;0.40;99.90;;;;;;5112310;27;20047;-76
2023/12/04 02:12:32;;;;;;;26.08;16.13;;;0.40;99.90;;;;;;5089218;28;20028;-77
2023/12/04 02:14:58;;;;;;;26.63;16.02;;;0.40;99.90;;;;;;5074518;28;20119;-77
2023/12/04 02:17:24;;;;;;;;;;;0.40;99.90;;;;;;5109399;28;20506;-76
2023/12/04 02:19:50;;;;;;;26.10;14.70;;;0.40;99.90;;;;;;5106823;27;19916;-77
2023/12/04 02:22:18;;;;;;;25.60;15.43;;;0.40;99.90;;;;;;5074689;28;20047;-77
2023/12/04 02:24:45;;;;;;;25.13;14.98;;;0.40;99.90;;;;;;5093443;28;20499;-77
2023/12/04 02:27:15;;;;;;;;;;;0.40;99.90;;;;;;5117296;27;20043;-77
2023/12/04 02:30:06;;;;;;;25.33;15.52;;;0.40;99.90;;;;;;5117750;27;20044;-77
2023/12/04 02:32:38;;;;;;;26.58;15.70;;;0.40;99.90;;;;;;5108942;28;20395;-77
2023/12/04 02:35:05;;;;;;;25.38;15.23;;;0.40;99.90;;;;;;5111876;28;20107;-77
2023/12/04 02:37:32;;;;;;;24.85;15.30;;;0.40;99.90;;;;;;5104938;27;20039;-77
2023/12/04 02:39:58;;;;;;;23.25;14.32;;;0.40;99.90;;;;;;5112184;28;20043;-77
2023/12/04 02:42:27;;;;;;;27.85;16.58;;;0.40;99.90;;;;;;5095184;28;20047;-77
2023/12/04 02:44:53;;;;;;;23.80;15.30;;;0.40;99.90;;;;;;5092031;28;20047;-78
2023/12/04 02:47:19;;;;;;;22.73;14.30;;;0.40;99.90;;;;;;5093297;28;20398;-78
2023/12/04 02:49:45;;;;;;;25.52;14.90;;;0.40;99.90;;;;;;5109420;28;20050;-77
2023/12/04 02:52:10;;;;;;;19.23;10.85;;;0.40;99.90;;;;;;5107054;27;20115;-77
2023/12/04 02:54:36;;;;;;;24.77;14.55;;;0.50;99.90;;;;;;5111464;27;20046;-77
2023/12/04 02:57:02;;;;;;;26.40;15.35;;;0.50;99.90;;;;;;5108768;27;20050;-77
2023/12/04 02:59:28;;;;;;;23.52;14.90;;;0.50;99.90;;;;;;5110271;28;20043;-77
2023/12/04 03:01:54;;;;;;;26.83;15.90;;;0.50;99.90;;;;;;5123272;27;20402;-77
2023/12/04 03:04:20;;;;;;;26.00;15.57;;;0.50;99.90;;;;;;5107244;28;20086;-77
2023/12/04 03:06:45;;;;;;;27.63;15.55;;;0.50;99.90;;;;;;5099713;28;20044;-77
2023/12/04 03:09:11;;;;;;;25.95;15.20;;;0.50;99.90;;;;;;5101815;27;20051;-77
2023/12/04 03:11:40;;;;;;;25.17;15.30;;;0.50;99.90;;;;;;5109539;28;20056;-77
2023/12/04 03:14:06;;;;;;;24.67;14.75;;;0.60;99.90;;;;;;5097236;27;20042;-77
2023/12/04 03:16:32;;;;;;;26.10;15.63;;;0.50;99.90;;;;;;5070983;28;20046;-77
2023/12/04 03:18:58;;;;;;;23.85;15.27;;;0.60;99.90;;;;;;5100066;27;20039;-77
2023/12/04 03:21:24;;;;;;;19.25;10.93;;;0.50;99.90;;;;;;5086922;28;20474;-77
2023/12/04 03:23:49;;;;;;;18.20;10.55;;;0.50;99.90;;;;;;5094663;28;20047;-78
2023/12/04 03:26:15;;;;;;;22.35;13.88;;;0.50;99.90;;;;;;5105643;28;20070;-77
2023/12/04 03:28:41;;;;;;;25.63;14.88;;;0.50;99.90;;;;;;5086536;28;20479;-78
2023/12/04 03:31:07;;;;;;;25.40;15.00;;;0.50;99.90;;;;;;5104652;27;20075;-77
2023/12/04 03:33:32;;;;;;;23.00;13.88;;;0.60;99.90;;;;;;5106348;28;20028;-77
2023/12/04 03:36:01;;;;;;;24.30;14.57;;;0.60;99.90;;;;;;5054042;28;20055;-78
2023/12/04 03:38:27;;;;;;;24.25;15.10;;;0.50;99.90;;;;;;5104694;27;20035;-78
2023/12/04 03:40:53;;;;;;;25.65;15.45;;;0.50;99.90;;;;;;5108067;27;20067;-78
2023/12/04 03:43:18;;;;;;;21.92;12.52;;;0.60;99.90;;;;;;5107238;27;20053;-78
2023/12/04 03:45:44;;;;;;;24.38;15.23;;;0.60;99.90;;;;;;5107248;27;20413;-78
2023/12/04 03:48:10;;;;;;;23.63;14.40;;;0.50;99.90;;;;;;5111378;27;20449;-77
2023/12/04 03:50:36;;;;;;;23.77;14.60;;;0.60;99.90;;;;;;5092826;28;20419;-77
2023/12/04 03:53:02;;;;;;;23.15;14.80;;;0.60;99.90;;;;;;5113347;27;20092;-78
2023/12/04 03:55:28;;;;;;;23.90;14.43;;;0.60;99.90;;;;;;5110318;28;20044;-78
2023/12/04 03:57:54;;;;;;;26.90;16.27;;;0.70;99.90;;;;;;5109811;27;20122;-78
2023/12/04 04:00:20;;;;;;;23.88;14.65;;;0.60;99.90;;;;;;5091306;28;20070;-79
2023/12/04 04:02:46;;;;;;;26.15;15.05;;;0.60;99.90;;;;;;5108341;28;20046;-79
2023/12/04 04:05:12;;;;;;;22.75;14.30;;;0.60;99.90;;;;;;5100817;28;20056;-80
2023/12/04 04:07:39;;;;;;;27.27;15.68;;;0.60;99.90;;;;;;5083051;27;20448;-79
2023/12/04 04:10:05;;;;;;;27.30;16.30;;;0.70;99.90;;;;;;5126730;27;20048;-79
2023/12/04 04:12:31;;;;;;;26.58;15.38;;;0.60;99.90;;;;;;5120799;27;20046;-80
2023/12/04 04:14:57;;;;;;;20.35;12.18;;;0.70;99.90;;;;;;5086738;28;20043;-80
2023/12/04 04:17:25;;;;;;;26.10;15.65;;;0.60;99.90;;;;;;5108704;27;20042;-77
2023/12/04 04:19:55;;;;;;;26.20;15.68;;;0.70;99.90;;;;;;5093956;28;20048;-77
2023/12/04 04:22:21;;;;;;;25.00;15.43;;;0.60;99.90;;;;;;5084952;28;20169;-78
2023/12/04 04:24:48;;;;;;;22.48;13.18;;;0.70;99.90;;;;;;5104916;27;20040;-78
2023/12/04 04:27:14;;;;;;;24.25;15.07;;;0.70;99.90;;;;;;5107217;28;20043;-79
2023/12/04 04:29:39;;;;;;;24.20;15.55;;;0.70;99.90;;;;;;5095360;28;20089;-79
2023/12/04 04:32:05;;;;;;;22.45;13.68;;;0.70;99.90;;;;;;5111064;28;20050;-81
2023/12/04 04:34:31;;;;;;;22.83;13.60;;;0.60;99.90;;;;;;5094970;28;20050;-81
2023/12/04 04:36:57;;;;;;;24.52;14.68;;;0.60;99.90;;;;;;5105619;28;20123;-81
2023/12/04 04:39:23;;;;;;;25.05;14.65;;;0.70;99.90;;;;;;5112577;28;20044;-82
2023/12/04 04:41:48;;;;;;;18.77;11.98;;;0.60;99.90;;;;;;5087552;28;20429;-82
2023/12/04 04:44:14;;;;;;;19.23;11.68;;;0.60;99.90;;;;;;5084306;28;20044;-81
2023/12/04 04:46:40;;;;;;;24.65;15.65;;;0.70;99.90;;;;;;5089754;28;20406;-77
2023/12/04 04:49:07;;;;;;;25.65;15.85;;;0.70;99.90;;;;;;5075841;28;20071;-77
2023/12/04 04:51:34;;;;;;;25.25;15.45;;;0.70;99.90;;;;;;5087762;28;20037;-78
2023/12/04 04:54:00;;;;;;;26.13;15.20;;;0.70;99.90;;;;;;5107051;28;20050;-78
2023/12/04 04:56:26;;;;;;;;;;;0.70;99.90;;;;;;5106032;28;20032;-78
2023/12/04 04:58:52;;;;;;;24.48;14.38;;;0.70;99.90;;;;;;5108627;28;19920;-77
2023/12/04 05:01:17;;;;;;;24.70;13.85;;;0.70;99.90;;;;;;5088932;28;20031;-77
2023/12/04 05:03:43;;;;;;;23.77;13.17;;;0.70;99.90;;;;;;5107159;28;20667;-77
2023/12/04 05:06:09;;;;;;;25.48;15.15;;;0.70;99.90;;;;;;5075559;28;20404;-77
2023/12/04 05:08:35;;;;;;;24.42;15.00;;;0.70;99.90;;;;;;5084577;28;20039;-77
2023/12/04 05:11:00;;;;;;;23.92;14.00;;;0.70;99.90;;;;;;5068095;28;20812;-76
2023/12/04 05:13:26;;;;;;;21.23;13.85;;;0.70;99.90;;;;;;5094938;27;20084;-77
2023/12/04 05:15:52;;;;;;;19.98;11.68;;;0.70;99.90;;;;;;5088288;28;20040;-77
2023/12/04 05:18:18;;;;;;;25.48;14.93;;;0.70;99.90;;;;;;5106680;28;20176;-77
2023/12/04 05:20:43;;;;;;;22.02;14.20;;;0.70;99.90;;;;;;5100826;27;20043;-76
2023/12/04 05:23:09;;;;;;;24.77;14.55;;;0.70;99.90;;;;;;5106909;28;20043;-77
2023/12/04 05:25:35;;;;;;;22.75;13.82;;;0.70;99.90;;;;;;5104513;27;20047;-76
2023/12/04 05:28:00;;;;;;;23.27;14.00;;;0.70;99.90;;;;;;5052804;28;20043;-77
2023/12/04 05:30:26;;;;;;;26.02;15.40;;;0.70;99.90;;;;;;5105112;27;20052;-77
2023/12/04 05:32:52;;;;;;;28.48;16.10;;;0.70;99.90;;;;;;5086364;27;20040;-77
2023/12/04 05:35:18;;;;;;;24.45;15.60;;;0.70;99.90;;;;;;5086907;27;20084;-77
2023/12/04 05:37:45;;;;;;;25.23;15.43;;;0.70;99.90;;;;;;5101225;28;20048;-79
2023/12/04 05:40:11;;;;;;;;;;;0.70;99.90;;;;;;5102841;27;20039;-80
2023/12/04 05:42:37;;;;;;;25.58;14.57;;;0.70;99.90;;;;;;5106646;27;19915;-80
2023/12/04 05:45:03;;;;;;;23.67;13.40;;;0.70;99.90;;;;;;5103403;27;20043;-80
2023/12/04 05:47:28;;;;;;;24.20;14.63;;;0.70;99.90;;;;;;5068399;28;20083;-80
2023/12/04 05:49:54;;;;;;;24.10;14.90;;;0.70;99.90;;;;;;5068844;28;20118;-77
2023/12/04 05:52:20;;;;;;;26.67;14.73;;;0.70;99.90;;;;;;5085996;28;20031;-80
2023/12/04 05:54:46;;;;;;;24.10;14.95;;;0.60;99.90;;;;;;5110769;28;20046;-79
2023/12/04 05:57:12;;;;;;;22.10;13.95;;;0.70;99.90;;;;;;5108214;28;20040;-80
2023/12/04 05:59:38;;;;;;;26.15;14.85;;;0.70;99.90;;;;;;5086504;28;20031;-77
2023/12/04 06:02:03;;;;;;;23.50;14.18;;;0.70;99.90;;;;;;5100380;28;20044;-77
2023/12/04 06:04:29;;;;;;;23.90;13.95;;;0.60;99.90;;;;;;5099440;28;20100;-77
2023/12/04 06:06:55;;;;;;;23.55;14.68;;;0.60;99.90;;;;;;5103613;27;20553;-77
2023/12/04 06:09:20;;;;;;;27.45;15.52;;;0.60;99.90;;;;;;5088241;28;20047;-77
2023/12/04 06:11:46;;;;;;;24.60;14.52;;;0.70;99.90;;;;;;5101967;28;20139;-76
2023/12/04 06:14:12;;;;;;;24.38;14.73;;;0.70;99.90;;;;;;5087477;28;20494;-80
2023/12/04 06:16:38;;;;;;;24.13;15.80;;;0.70;99.90;;;;;;5103558;28;20035;-80
2023/12/04 06:19:04;;;;;;;25.15;14.55;;;0.70;99.90;;;;;;5105058;28;20035;-80
2023/12/04 06:21:30;;;;;;;22.40;13.65;;;0.70;99.90;;;;;;5098970;28;20044;-79
2023/12/04 06:23:56;;;;;;;24.98;14.65;;;0.60;99.90;;;;;;5104145;27;20035;-77
2023/12/04 06:26:23;;;;;;;25.98;15.40;;;0.70;99.90;;;;;;5112980;28;20040;-80
2023/12/04 06:28:49;;;;;;;25.65;15.20;;;0.70;99.90;;;;;;5077796;28;20081;-80
2023/12/04 06:31:15;;;;;;;24.25;15.23;;;0.70;99.90;;;;;;5108270;27;20051;-79
2023/12/04 06:33:41;;;;;;;23.88;14.65;;;0.70;99.90;;;;;;5096163;28;20043;-79
2023/12/04 06:36:07;;;;;;;28.95;15.05;;;0.70;99.90;;;;;;5121079;27;20036;-79
2023/12/04 06:38:38;;;;;;;;;;;0.70;99.90;;;;;;5104056;28;20043;-80
2023/12/04 06:41:04;;;;;;;25.52;15.02;;;0.70;99.90;;;;;;5091447;28;19916;-81
2023/12/04 06:43:30;;;;;;;24.58;14.15;;;0.70;99.90;;;;;;5106368;28;20047;-79
2023/12/04 06:45:58;;;;;;;23.27;14.50;;;0.70;99.90;;;;;;5104285;28;20047;-79
2023/12/04 06:48:24;;;;;;;22.42;13.70;;;0.70;99.90;;;;;;5068063;28;20040;-76
2023/12/04 06:50:50;;;;;;;22.58;13.95;;;0.70;99.90;;;;;;5108930;28;20036;-77
2023/12/04 06:53:16;;;;;;;24.20;14.80;;;0.70;99.90;;;;;;5093930;28;20114;-76
2023/12/04 06:55:42;;;;;;;20.20;11.15;;;0.70;99.90;;;;;;5094587;28;20194;-77
2023/12/04 06:58:07;;;;;;;25.42;14.32;;;0.70;99.90;;;;;;5090537;28;20036;-78
2023/12/04 07:00:33;;;;;;;20.98;12.88;;;0.70;99.90;;;;;;5093828;28;20043;-79
2023/12/04 07:02:59;;;;;;;24.35;14.50;;;0.70;99.90;;;;;;5107597;28;20047;-79
2023/12/04 07:05:24;;;;;;;24.27;14.13;;;0.70;99.90;;;;;;5095263;28;20040;-78
2023/12/04 07:07:50;;;;;;;25.42;14.35;;;0.70;99.90;;;;;;5111623;28;20048;-79
2023/12/04 07:10:16;;;;;;;24.05;14.00;;;0.70;99.90;;;;;;5102658;28;20078;-79
2023/12/04 07:12:42;;;;;;;22.55;13.90;;;0.70;99.90;;;;;;5106578;28;20154;-76
2023/12/04 07:15:11;;;;;;;21.95;13.63;;;0.70;99.90;;;;;;5107322;28;20140;-76
2023/12/04 07:17:37;;;;;;;25.25;14.85;;;0.70;99.90;;;;;;5108214;28;20802;-76
2023/12/04 07:20:06;;;;;;;21.95;13.30;;;0.60;99.90;;;;;;5107846;28;20437;-78
2023/12/04 07:22:32;;;;;;;24.42;14.18;;;0.70;99.90;;;;;;5111280;28;20550;-77
2023/12/04 07:24:58;;;;;;;;;;;0.70;99.90;;;;;;5108774;28;20043;-78
2023/12/04 07:27:24;;;;;;;24.65;13.85;;;0.70;99.90;;;;;;5090227;28;19973;-78
2023/12/04 07:29:49;;;;;;;23.15;13.60;;;0.70;99.90;;;;;;5082631;28;20055;-79
2023/12/04 07:32:15;;;;;;;23.05;13.20;;;0.70;99.90;;;;;;5092898;28;20051;-79
2023/12/04 07:34:41;;;;;;;22.58;13.65;;;0.60;99.90;;;;;;5109527;28;20044;-79
2023/12/04 07:37:07;;;;;;;21.40;12.98;;;0.60;99.90;;;;;;5092995;28;20482;-79
2023/12/04 07:39:33;;;;;;;21.85;12.82;;;0.70;99.90;;;;;;5090732;28;20048;-78
2023/12/04 07:41:58;;;;;;;21.85;13.52;;;0.60;99.90;;;;;;5093529;28;20051;-78
2023/12/04 07:44:24;;;;;;;22.55;13.25;;;0.60;99.90;;;;;;5107295;28;20547;-79
2023/12/04 07:46:50;;;;;;;21.70;13.60;;;0.60;99.90;;;;;;5110824;28;20051;-78
2023/12/04 07:49:16;;;;;;;23.10;13.77;;;0.70;99.90;;;;;;5091180;28;20031;-79
2023/12/04 07:51:42;;;;;;;20.92;12.73;;;0.70;99.90;;;;;;5091286;28;20050;-78
2023/12/04 07:54:07;;;;;;;22.98;13.70;;;0.70;99.90;;;;;;5103822;27;20036;-77
2023/12/04 07:56:33;;;;;;;22.10;13.70;;;0.70;99.90;;;;;;5109530;28;20036;-78
2023/12/04 07:58:59;;;;;;;23.38;13.27;;;0.70;99.90;;;;;;5106269;28;20048;-78
2023/12/04 08:01:24;;;;;;;22.27;13.32;;;0.70;99.90;;;;;;5109061;28;20092;-78
2023/12/04 08:03:50;;;;;;;22.65;13.30;;;0.70;99.90;;;;;;5069943;28;20051;-78
2023/12/04 08:06:18;;;;;;;22.02;12.93;;;0.70;99.90;;;;;;5099088;28;20054;-79
2023/12/04 08:08:44;;;;;;;20.10;12.65;;;0.80;99.90;;;;;;5091109;28;20047;-78
2023/12/04 08:11:11;;;;;;;19.08;11.93;;;0.70;99.90;;;;;;5108311;28;20046;-78
2023/12/04 08:13:41;;;;;;;20.75;12.77;;;0.80;99.90;;;;;;5107711;27;20567;-78
2023/12/04 08:16:15;;;;;;;21.55;12.27;;;0.80;99.90;;;;;;5091845;28;20043;-78
2023/12/04 08:18:41;;;;;;;20.52;11.88;;;0.80;99.90;;;;;;5085587;28;20136;-78
2023/12/04 08:21:07;;;;;;;20.88;11.93;;;0.80;99.90;;;;;;5096309;27;20082;-78
2023/12/04 08:23:33;;;;;;;20.50;12.27;;;0.80;99.90;;;;;;5090686;28;20050;-78
2023/12/04 08:25:59;;;;;;;18.80;11.85;;;0.90;99.90;;;;;;5071090;28;20048;-78
2023/12/04 08:28:24;;;;;;;20.80;12.40;;;0.90;99.90;;;;;;5090632;28;20047;-78
2023/12/04 08:30:50;;;;;;;18.90;11.87;;;0.90;99.90;;;;;;5105814;28;20406;-78
2023/12/04 08:33:16;;;;;;;17.67;11.25;;;0.90;99.90;;;;;;5064431;28;20692;-78
2023/12/04 08:35:41;;;;;;;19.90;11.48;;;1.00;99.90;;;;;;5101206;28;20058;-78
2023/12/04 08:38:07;;;;;;;18.80;12.18;;;1.00;99.90;;;;;;5092832;28;20035;-78
2023/12/04 08:40:33;;;;;;;19.27;12.23;;;1.00;99.90;;;;;;5092942;28;20500;-78
2023/12/04 08:42:58;;;;;;;20.63;11.93;;;1.00;99.90;;;;;;5105274;28;20089;-78
2023/12/04 08:45:24;;;;;;;18.17;11.18;;;1.10;99.90;;;;;;5099249;28;20043;-78
2023/12/04 08:47:50;;;;;;;17.05;11.35;;;1.00;99.90;;;;;;5106287;28;20735;-78
2023/12/04 08:50:16;;;;;;;18.60;11.38;;;1.10;99.90;;;;;;5091344;28;20127;-78
2023/12/04 08:52:42;;;;;;;19.38;10.95;;;1.10;99.90;;;;;;5110296;28;20051;-78
2023/12/04 08:55:08;;;;;;;17.45;11.27;;;1.10;99.90;;;;;;5094277;28;20053;-78
2023/12/04 08:57:34;;;;;;;17.17;11.02;;;1.10;99.90;;;;;;5096485;28;20054;-78
2023/12/04 08:59:59;;;;;;;19.77;11.25;;;1.10;99.90;;;;;;5112679;28;20494;-78
2023/12/04 09:02:25;;;;;;;16.17;9.85;;;1.20;99.90;;;;;;5096159;28;20035;-78
2023/12/04 09:04:51;;;;;;;18.73;11.02;;;1.20;99.90;;;;;;5097333;28;20109;-77
2023/12/04 09:07:17;;;;;;;17.67;10.70;;;1.20;99.90;;;;;;5113226;28;20211;-78
2023/12/04 09:09:43;;;;;;;16.90;10.88;;;1.20;99.90;;;;;;5110631;28;20046;-78
2023/12/04 09:12:10;;;;;;;17.42;11.45;;;1.20;99.90;;;;;;5107792;28;20486;-79
2023/12/04 09:14:35;;;;;;;15.85;10.27;;;1.20;99.90;;;;;;5109580;28;20035;-78
2023/12/04 09:17:01;;;;;;;17.25;10.73;;;1.20;99.90;;;;;;5113023;28;20047;-78
2023/12/04 09:19:27;;;;;;;14.75;9.50;;;1.30;99.90;;;;;;5106857;28;20071;-78
2023/12/04 09:21:53;;;;;;;16.83;10.80;;;1.20;99.90;;;;;;5095076;28;20039;-79
2023/12/04 09:24:18;;;;;;;16.52;10.50;;;1.30;99.90;;;;;;5087545;27;20498;-78
2023/12/04 09:26:44;;;;;;;15.20;10.02;;;1.30;99.90;;;;;;5085577;27;20042;-78
2023/12/04 09:29:13;;;;;;;15.77;10.32;;;1.30;99.90;;;;;;5087749;28;20055;-78
2023/12/04 09:31:39;;;;;;;17.23;9.55;;;1.30;99.90;;;;;;5111163;27;20390;-77
2023/12/04 09:34:05;;;;;;;16.40;11.02;;;1.30;99.90;;;;;;5108636;28;20043;-78
2023/12/04 09:36:31;;;;;;;;;;;1.30;99.90;;;;;;5095781;28;20031;-78
2023/12/04 09:38:56;;;;;;;16.23;9.80;;;1.30;99.90;;;;;;5113563;28;20052;-79
2023/12/04 09:41:22;;;;;;;16.00;10.05;;;1.40;99.90;;;;;;5096421;28;20043;-79
2023/12/04 09:43:49;;;;;;;15.80;10.02;;;1.40;99.90;;;;;;5108734;28;20046;-79
2023/12/04 09:46:17;;;;;;;14.60;9.73;;;1.40;99.90;;;;;;5113405;28;20035;-79
2023/12/04 09:48:43;;;;;;;15.43;9.73;;;1.40;99.90;;;;;;5095981;28;20039;-79
2023/12/04 09:51:10;;;;;;;16.63;9.25;;;1.40;99.90;;;;;;5111596;28;20044;-79
2023/12/04 09:53:36;;;;;;;;;;;1.50;99.90;;;;;;5093702;28;20046;-79
2023/12/04 09:56:03;;;;;;;15.32;9.90;;;1.50;99.90;;;;;;5110045;28;19958;-79
2023/12/04 09:58:32;;;;;;;15.27;10.18;;;1.50;99.90;;;;;;5090558;28;20036;-79
2023/12/04 10:01:00;;;;;;;15.88;10.15;;;1.60;99.90;;;;;;5093649;28;20050;-79
2023/12/04 10:03:27;;;;;;;14.02;9.30;;;1.60;99.90;;;;;;5105128;28;20043;-79
2023/12/04 10:05:54;;;;;;;13.90;8.52;;;1.60;99.90;;;;;;5109536;28;20047;-79
2023/12/04 10:08:21;;;;;;;13.43;9.00;;;1.60;99.90;;;;;;5110329;28;20047;-80
2023/12/04 10:10:47;;;;;;;13.77;9.32;;;1.70;99.90;;;;;;5110404;28;20039;-80
2023/12/04 10:13:13;;;;;;;16.45;9.23;;;1.70;99.90;;;;;;5094197;28;20577;-79
2023/12/04 10:15:49;;;;;;;15.32;9.27;;;1.70;99.90;;;;;;5092782;28;20040;-79
2023/12/04 10:18:31;;;;;;;15.27;9.50;;;1.80;99.90;;;;;;5094062;28;20027;-80
2023/12/04 10:20:58;;;;;;;13.35;8.75;;;1.80;99.90;;;;;;5094515;28;20044;-80
2023/12/04 10:23:42;;;;;;;13.15;8.35;;;1.90;99.90;;;;;;5111458;28;20040;-79
2023/12/04 10:26:08;;;;;;;12.77;8.02;;;1.90;99.90;;;;;;5094244;28;20577;-78
2023/12/04 10:28:35;;;;;;;12.15;8.18;;;2.00;99.90;;;;;;5094908;28;20042;-79
2023/12/04 10:31:01;;;;;;;13.05;8.70;;;2.00;99.90;;;;;;5061697;28;20098;-79
2023/12/04 10:33:29;;;;;;;13.55;8.43;;;2.00;99.90;;;;;;5067811;28;20047;-79
2023/12/04 10:35:57;;;;;;;11.85;7.85;;;2.10;99.90;;;;;;5070207;28;20046;-79
2023/12/04 10:38:23;;;;;;;12.52;8.60;;;2.00;99.90;;;;;;5034503;28;20037;-78
2023/12/04 10:40:49;;;;;;;13.65;8.27;;;2.10;99.90;;;;;;5058421;28;20045;-78
2023/12/04 10:43:19;;;;;;;13.63;8.43;;;2.10;99.90;;;;;;5030433;28;20492;-79
2023/12/04 10:45:47;;;;;;;10.80;7.95;;;2.00;99.90;;;;;;5069669;28;20044;-78
2023/12/04 10:48:14;;;;;;;11.20;7.80;;;2.00;99.90;;;;;;5069788;28;20040;-78
2023/12/04 10:50:42;;;;;;;11.32;8.07;;;2.10;99.90;;;;;;5069510;28;20056;-79
2023/12/04 10:53:09;;;;;;;14.43;8.32;;;2.10;99.90;;;;;;5054044;28;20044;-77
2023/12/04 10:55:36;;;;;;;12.60;8.25;;;2.10;99.90;;;;;;5071435;28;20047;-78
2023/12/04 10:58:07;;;;;;;12.98;8.52;;;2.10;99.90;;;;;;5070835;28;20461;-78
2023/12/04 11:00:34;;;;;;;11.57;7.90;;;2.10;99.90;;;;;;5071435;28;20044;-78
2023/12/04 11:03:08;;;;;;;12.75;8.20;;;2.10;99.90;;;;;;5054347;28;20045;-78
2023/12/04 11:05:39;;;;;;;14.35;8.43;;;2.20;99.90;;;;;;5054596;28;20053;-78
2023/12/04 11:08:07;;;;;;;12.57;8.07;;;2.20;99.90;;;;;;5054056;28;20044;-78
2023/12/04 11:10:36;;;;;;;12.10;8.25;;;2.30;99.90;;;;;;5069563;28;20044;-78
2023/12/04 11:13:15;;;;;;;11.88;7.97;;;2.30;99.90;;;;;;5070569;28;20055;-78
2023/12/04 11:15:45;;;;;;;13.93;8.18;;;2.40;99.90;;;;;;5051614;28;20491;-78
2023/12/04 11:18:15;;;;;;;12.55;8.30;;;2.50;99.90;;;;;;5054174;28;20032;-78
2023/12/04 11:20:50;;;;;;;12.15;7.75;;;2.50;99.90;;;;;;5069303;28;20048;-79
2023/12/04 11:23:16;;;;;;;12.48;8.02;;;2.50;99.90;;;;;;5067234;28;20123;-78
2023/12/04 11:25:43;;;;;;;10.07;7.20;;;2.50;99.90;;;;;;5067886;28;20052;-78
2023/12/04 11:28:11;;;;;;;13.13;8.27;;;2.60;99.90;;;;;;5070369;28;20036;-78
2023/12/04 11:30:37;;;;;;;13.05;7.80;;;2.70;99.90;;;;;;5086840;28;20055;-78
2023/12/04 11:33:05;;;;;;;11.48;7.65;;;2.70;99.90;;;;;;5110392;28;20452;-78
2023/12/04 11:35:33;;;;;;;19.98;8.02;;;2.70;99.90;;;;;;5093552;28;20040;-78
2023/12/04 11:37:58;;;;;;;12.52;7.78;;;2.60;99.90;;;;;;5110708;28;20044;-77
2023/12/04 11:40:25;;;;;;;11.38;8.10;;;2.70;99.90;;;;;;5107087;28;20077;-77
2023/12/04 11:42:52;;;;;;;;;;;2.60;99.90;;;;;;5094397;28;20116;-77
2023/12/04 11:45:21;;;;;;;12.75;8.32;;;2.60;99.90;;;;;;5106501;28;19970;-78
2023/12/04 11:47:57;;;;;;;11.85;7.88;;;2.60;99.90;;;;;;5088096;28;20767;-78
2023/12/04 11:50:26;;;;;;;12.30;8.20;;;2.60;99.90;;;;;;5089300;28;20130;-78
2023/12/04 11:53:18;;;;;;;12.20;7.72;;;2.60;99.90;;;;;;5081779;28;20051;-78
2023/12/04 11:55:46;;;;;;;11.50;7.25;;;2.60;99.90;;;;;;5105303;28;20508;-78
2023/12/04 11:58:12;;;;;;;12.15;7.50;;;2.60;99.90;;;;;;5086605;28;20042;-78
2023/12/04 12:00:38;;;;;;;11.68;7.65;;;2.60;99.90;;;;;;5087589;28;20040;-77
2023/12/04 12:03:09;;;;;;;12.65;8.32;;;2.50;99.90;;;;;;5105764;28;20043;-79
2023/12/04 12:05:39;;;;;;;12.05;7.43;;;2.50;99.90;;;;;;5099401;28;20181;-78
2023/12/04 12:08:06;;;;;;;10.27;6.88;;;2.50;99.90;;;;;;5081791;28;20043;-78
2023/12/04 12:10:32;;;;;;;10.80;7.05;;;2.50;99.90;;;;;;5109729;28;20521;-77
2023/12/04 12:12:58;;;;;;;;;;;2.40;99.90;;;;;;5087743;28;20064;-78
2023/12/04 12:15:24;;;;;;;11.98;7.25;;;2.40;99.90;;;;;;5086962;28;19924;-78
2023/12/04 12:17:51;;;;;;;;;;;2.40;99.90;;;;;;5088303;28;20028;-78
2023/12/04 12:20:17;;;;;;;12.55;7.38;;;2.30;99.90;;;;;;5088372;28;19915;-77
2023/12/04 12:22:43;;;;;;;12.25;7.85;;;2.30;99.90;;;;;;5105408;28;20372;-77
2023/12/04 12:25:11;;;;;;;11.95;8.10;;;2.30;99.90;;;;;;5104409;28;20044;-77
2023/12/04 12:27:37;;;;;;;11.05;7.82;;;2.30;99.90;;;;;;5108564;28;20048;-77
2023/12/04 12:30:04;;;;;;;13.65;7.97;;;2.30;99.90;;;;;;5069922;28;20084;-77
2023/12/04 12:32:31;;;;;;;11.63;7.60;;;2.30;99.90;;;;;;5105544;28;20039;-77
2023/12/04 12:34:57;;;;;;;13.30;7.75;;;2.20;99.90;;;;;;5108246;28;21953;-77
2023/12/04 12:37:23;;;;;;;12.10;8.27;;;2.20;99.90;;;;;;5083320;28;20077;-77
2023/12/04 12:39:50;;;;;;;13.00;7.63;;;2.30;99.90;;;;;;5105187;28;20071;-77